Time;durP1;ratioP1;P1;durP2;ratioP2;P2;SDS_P1;SDS_P2;PMS_P1;PMS_P2;Temp;Humidity;BMP_temperature;BMP_pressure;BME280_temperature;BME280_humidity;BME280_pressure;Samples;Min_cycle;Max_cycle;Signal;HPM_P1;HPM_P2
2023/08/14 00:00:13;;;;;;;;;;;;;;;13.76;100.00;97912.97;110362;1240;70512;-69
2023/08/14 00:03:03;;;;;;;;;;;;;;;13.71;100.00;97912.64;110392;1242;68904;-68
2023/08/14 00:05:35;;;;;;;9.70;6.60;;;;;;;13.68;100.00;97910.44;110346;1242;70020;-67
2023/08/14 00:08:07;;;;;;;9.90;7.40;;;;;;;13.66;100.00;97908.29;110278;1242;59255;-67
2023/08/14 00:10:38;;;;;;;9.20;7.20;;;;;;;13.66;100.00;97906.38;110507;1242;58937;-67
2023/08/14 00:13:09;;;;;;;10.70;7.10;;;;;;;13.67;100.00;97907.18;110558;1241;71094;-68
2023/08/14 00:15:40;;;;;;;9.10;7.30;;;;;;;13.69;100.00;97908.27;110380;1241;69202;-67
2023/08/14 00:18:14;;;;;;;8.90;6.50;;;;;;;13.70;100.00;97911.85;110551;1241;68175;-67
2023/08/14 00:20:45;;;;;;;9.70;7.50;;;;;;;13.69;100.00;97915.05;110232;1242;58898;-69
2023/08/14 00:23:15;;;;;;;10.00;7.50;;;;;;;13.65;100.00;97915.36;110261;1242;58821;-69
2023/08/14 00:25:46;;;;;;;10.70;7.50;;;;;;;13.64;100.00;97913.92;110255;1242;70647;-69
2023/08/14 00:28:15;;;;;;;9.30;7.30;;;;;;;13.63;100.00;97917.84;110285;1241;68093;-67
2023/08/14 00:30:44;;;;;;;9.10;7.20;;;;;;;13.62;100.00;97918.60;110251;1249;68312;-67
2023/08/14 00:33:15;;;;;;;9.30;6.80;;;;;;;13.61;100.00;97923.23;110529;1242;58846;-67
2023/08/14 00:35:45;;;;;;;8.30;6.20;;;;;;;13.59;100.00;97925.69;110434;1241;58954;-67
2023/08/14 00:38:17;;;;;;;8.80;7.20;;;;;;;13.57;100.00;97922.89;110190;1242;70703;-67
2023/08/14 00:40:48;;;;;;;7.90;6.30;;;;;;;13.54;100.00;97914.66;110218;1243;69029;-67
2023/08/14 00:43:23;;;;;;;7.80;6.30;;;;;;;13.52;100.00;97913.27;110250;1242;69430;-68
2023/08/14 00:45:58;;;;;;;7.60;6.30;;;;;;;13.52;100.00;97910.27;110262;1242;58878;-68
2023/08/14 00:48:31;;;;;;;6.70;5.80;;;;;;;13.50;100.00;97912.70;110276;1242;58896;-66
2023/08/14 00:51:02;;;;;;;7.60;6.60;;;;;;;13.46;100.00;97909.51;110506;1242;70944;-68
2023/08/14 00:53:36;;;;;;;6.50;5.40;;;;;;;13.41;100.00;97910.59;110239;1240;69408;-69
2023/08/14 00:56:09;;;;;;;8.00;6.70;;;;;;;13.37;100.00;97908.98;110440;1242;68423;-67
2023/08/14 00:58:42;;;;;;;8.00;6.10;;;;;;;13.32;100.00;97912.86;110364;1241;58855;-67
2023/08/14 01:01:13;;;;;;;7.00;5.70;;;;;;;13.28;100.00;97922.48;110304;1241;58914;-67
2023/08/14 01:03:44;;;;;;;7.60;5.60;;;;;;;13.24;100.00;97922.92;110285;1241;70817;-67
2023/08/14 01:06:16;;;;;;;7.20;5.90;;;;;;;13.23;100.00;97924.23;110100;1242;69072;-69
2023/08/14 01:08:49;;;;;;;7.50;5.90;;;;;;;13.20;100.00;97924.93;110172;1251;68520;-69
2023/08/14 01:11:38;;;;;;;7.50;6.30;;;;;;;13.19;100.00;97924.97;110311;1242;59740;-69
2023/08/14 01:14:20;;;;;;;8.10;7.00;;;;;;;13.18;100.00;97927.73;110269;1242;59682;-69
2023/08/14 01:16:58;;;;;;;6.10;5.50;;;;;;;13.15;100.00;97926.84;110273;1240;71412;-68
2023/08/14 01:19:37;;;;;;;7.60;6.20;;;;;;;13.12;100.00;97927.63;110337;1242;69269;-68
2023/08/14 01:22:23;;;;;;;7.70;6.30;;;;;;;13.07;100.00;97925.89;110429;1241;68348;-68
2023/08/14 01:25:02;;;;;;;7.50;6.20;;;;;;;13.05;100.00;97926.74;110372;1241;59750;-68
2023/08/14 01:27:34;;;;;;;7.10;6.10;;;;;;;13.05;100.00;97926.45;110236;1242;59736;-67
2023/08/14 01:30:07;;;;;;;5.90;5.20;;;;;;;13.04;100.00;97924.42;110232;1241;70436;-68
2023/08/14 01:32:38;;;;;;;6.30;5.60;;;;;;;13.01;100.00;97927.20;110539;1242;69150;-68
2023/08/14 01:35:18;;;;;;;5.90;5.30;;;;;;;12.99;100.00;97928.59;110402;1241;68505;-68
2023/08/14 01:38:17;;;;;;;8.80;6.10;;;;;;;12.98;100.00;97927.80;110239;1242;59694;-68
2023/08/14 01:41:18;;;;;;;6.90;5.90;;;;;;;12.94;100.00;97924.75;110193;1242;59733;-66
2023/08/14 01:43:57;;;;;;;6.20;5.40;;;;;;;12.93;100.00;97920.25;110191;1242;70421;-68
2023/08/14 01:46:34;;;;;;;6.60;5.80;;;;;;;12.92;100.00;97919.69;110597;1241;69106;-67
2023/08/14 01:49:15;;;;;;;5.50;4.90;;;;;;;12.91;100.00;97921.54;110367;1242;68519;-67
2023/08/14 01:51:49;;;;;;;5.40;4.30;;;;;;;12.88;100.00;97920.69;110339;1241;59737;-68
2023/08/14 01:54:19;;;;;;;6.30;5.00;;;;;;;12.86;100.00;97926.25;110344;1241;59670;-67
2023/08/14 01:56:52;;;;;;;6.40;4.70;;;;;;;12.84;100.00;97923.97;110314;1242;70835;-65
2023/08/14 01:59:48;;;;;;;5.80;4.80;;;;;;;12.76;100.00;97926.63;110320;1240;69030;-69
2023/08/14 02:02:23;;;;;;;5.50;4.40;;;;;;;12.64;100.00;97929.98;110384;1242;69268;-69
2023/08/14 02:04:56;;;;;;;6.10;4.80;;;;;;;12.59;100.00;97935.54;110448;1242;59799;-69
2023/08/14 02:07:31;;;;;;;6.10;5.20;;;;;;;12.57;100.00;97932.77;110379;1241;59733;-68
2023/08/14 02:10:02;;;;;;;;;;;;;;;12.55;100.00;97932.54;110376;1240;71970;-68
2023/08/14 02:12:34;;;;;;;6.10;4.90;;;;;;;12.52;100.00;97931.20;110183;1242;69178;-67
2023/08/14 02:15:12;;;;;;;6.90;5.30;;;;;;;12.50;100.00;97932.89;110253;1240;69372;-67
2023/08/14 02:17:51;;;;;;;5.80;5.20;;;;;;;12.47;100.00;97935.22;110262;1241;59679;-68
2023/08/14 02:20:28;;;;;;;5.60;4.50;;;;;;;12.45;100.00;97937.31;110285;1242;59679;-69
2023/08/14 02:23:06;;;;;;;5.30;4.20;;;;;;;12.57;100.00;97934.46;110284;1242;71660;-68
2023/08/14 02:25:44;;;;;;;5.70;4.80;;;;;;;12.58;100.00;97935.67;110320;1242;68750;-68
2023/08/14 02:28:15;;;;;;;6.40;4.90;;;;;;;12.55;100.00;97940.90;110218;1242;69358;-69
2023/08/14 02:30:56;;;;;;;6.10;4.60;;;;;;;12.53;100.00;97942.09;110384;1242;59692;-68
2023/08/14 02:33:31;;;;;;;5.40;4.60;;;;;;;12.54;100.00;97943.30;110314;1242;59685;-69
2023/08/14 02:36:04;;;;;;;5.50;4.80;;;;;;;12.51;100.00;97942.29;110160;1243;71258;-68
2023/08/14 02:38:37;;;;;;;6.90;5.70;;;;;;;12.51;100.00;97942.64;110446;1242;69362;-67
2023/08/14 02:41:08;;;;;;;5.30;4.60;;;;;;;12.52;100.00;97943.95;110451;1244;68318;-67
2023/08/14 02:43:38;;;;;;;5.20;4.30;;;;;;;12.51;100.00;97944.90;110393;1241;59699;-68
2023/08/14 02:46:12;;;;;;;5.30;4.60;;;;;;;12.48;100.00;97947.17;110363;1241;60193;-67
2023/08/14 02:48:45;;;;;;;4.90;4.20;;;;;;;12.47;100.00;97948.31;110244;1242;71511;-67
2023/08/14 02:51:17;;;;;;;6.50;5.70;;;;;;;12.44;100.00;97951.67;110525;1242;68387;-67
2023/08/14 02:53:48;;;;;;;5.70;5.10;;;;;;;12.40;100.00;97951.81;110379;1245;69248;-67
2023/08/14 02:56:18;;;;;;;5.90;5.00;;;;;;;12.35;100.00;97951.09;110318;1242;59666;-68
2023/08/14 02:58:49;;;;;;;5.50;4.60;;;;;;;12.31;100.00;97953.66;110479;1242;59683;-66
2023/08/14 03:01:22;;;;;;;5.70;5.00;;;;;;;12.29;100.00;97954.17;110299;1241;70577;-67
2023/08/14 03:03:55;;;;;;;5.80;4.50;;;;;;;12.26;100.00;97953.67;110453;1241;69190;-68
2023/08/14 03:06:30;;;;;;;5.90;4.70;;;;;;;12.23;100.00;97952.42;110509;1241;69074;-69
2023/08/14 03:09:03;;;;;;;6.10;4.70;;;;;;;12.21;100.00;97952.11;110529;1242;59692;-67
2023/08/14 03:11:35;;;;;;;5.80;4.70;;;;;;;12.18;100.00;97950.56;110543;1241;59666;-66
2023/08/14 03:14:07;;;;;;;5.30;4.60;;;;;;;12.14;100.00;97952.03;110330;1242;70630;-66
2023/08/14 03:16:38;;;;;;;5.70;4.40;;;;;;;12.14;100.00;97956.82;110256;1242;69090;-67
2023/08/14 03:19:09;;;;;;;5.90;4.90;;;;;;;12.12;100.00;97955.50;110312;1241;68805;-68
2023/08/14 03:21:42;;;;;;;6.10;5.10;;;;;;;12.15;100.00;97958.30;110289;1242;59650;-67
2023/08/14 03:24:14;;;;;;;5.40;4.90;;;;;;;12.19;100.00;97962.88;110246;1245;59681;-69
2023/08/14 03:26:46;;;;;;;5.90;4.90;;;;;;;12.24;100.00;97967.63;110249;1242;72000;-67
2023/08/14 03:29:17;;;;;;;4.80;3.90;;;;;;;12.24;100.00;97964.98;110481;1242;68319;-68
2023/08/14 03:31:48;;;;;;;4.90;4.40;;;;;;;12.23;100.00;97965.72;110531;1240;69203;-68
2023/08/14 03:34:20;;;;;;;6.70;5.70;;;;;;;12.24;100.00;97966.20;110341;1242;59747;-68
2023/08/14 03:36:53;;;;;;;6.10;5.50;;;;;;;12.25;100.00;97967.91;110272;1241;59939;-69
2023/08/14 03:39:26;;;;;;;5.70;5.00;;;;;;;12.24;100.00;97965.47;110220;1240;71600;-67
2023/08/14 03:42:00;;;;;;;5.80;4.80;;;;;;;12.24;100.00;97964.27;110185;1245;69294;-67
2023/08/14 03:44:33;;;;;;;4.80;4.30;;;;;;;12.27;100.00;97966.05;110409;1240;69154;-69
2023/08/14 03:47:04;;;;;;;7.20;4.90;;;;;;;12.28;100.00;97965.59;110460;1241;59750;-68
2023/08/14 03:49:35;;;;;;;7.70;6.20;;;;;;;12.29;100.00;97969.86;110363;1242;59738;-68
2023/08/14 03:52:05;;;;;;;7.30;5.90;;;;;;;12.32;100.00;97968.10;110521;1241;71407;-67
2023/08/14 03:54:36;;;;;;;6.40;5.70;;;;;;;12.36;100.00;97967.98;110258;1242;69796;-68
2023/08/14 03:57:07;;;;;;;7.80;6.50;;;;;;;12.40;100.00;97967.87;110465;1241;68327;-67
2023/08/14 03:59:37;;;;;;;7.30;6.40;;;;;;;12.46;100.00;97972.20;110442;1242;59698;-67
2023/08/14 04:02:08;;;;;;;7.30;5.60;;;;;;;12.46;100.00;97971.27;110543;1241;59728;-67
2023/08/14 04:04:38;;;;;;;6.00;4.90;;;;;;;12.49;100.00;97969.67;110483;1241;69637;-66
2023/08/14 04:07:09;;;;;;;6.70;5.30;;;;;;;12.53;100.00;97973.08;110519;1240;68591;-67
2023/08/14 04:09:40;;;;;;;6.10;4.90;;;;;;;12.57;100.00;97976.10;110413;1242;69477;-67
2023/08/14 04:12:10;;;;;;;6.40;5.30;;;;;;;12.64;100.00;97978.56;110243;1241;59725;-67
2023/08/14 04:14:40;;;;;;;6.00;5.00;;;;;;;12.79;100.00;97979.04;110226;1245;59682;-67
2023/08/14 04:17:10;;;;;;;5.20;4.70;;;;;;;12.99;100.00;97977.10;110509;1241;70803;-67
2023/08/14 04:19:39;;;;;;;5.20;4.70;;;;;;;13.24;100.00;97982.75;110187;1242;69283;-68
2023/08/14 04:22:09;;;;;;;5.80;4.70;;;;;;;13.53;100.00;97984.83;110475;1242;68512;-67
2023/08/14 04:24:38;;;;;;;5.50;4.80;;;;;;;13.78;100.00;97977.67;110424;1242;59760;-67
2023/08/14 04:27:07;;;;;;;4.80;4.30;;;;;;;13.96;100.00;97980.65;110331;1242;59657;-70
2023/08/14 04:29:38;;;;;;;5.60;4.90;;;;;;;14.13;100.00;97988.21;110292;1241;70842;-69
2023/08/14 04:32:09;;;;;;;5.90;4.90;;;;;;;14.28;100.00;97985.44;110189;1242;69467;-69
2023/08/14 04:34:42;;;;;;;5.50;4.90;;;;;;;14.43;100.00;97989.71;110175;1242;69112;-69
2023/08/14 04:37:12;;;;;;;5.10;4.60;;;;;;;14.52;100.00;97992.39;110252;1242;59720;-68
2023/08/14 04:39:43;;;;;;;5.20;4.40;;;;;;;14.57;100.00;97991.48;110423;1241;59625;-68
2023/08/14 04:42:12;;;;;;;5.00;4.40;;;;;;;14.67;100.00;97995.19;110538;1240;71822;-69
2023/08/14 04:44:43;;;;;;;5.30;4.50;;;;;;;14.86;100.00;97999.46;110430;1244;69304;-69
2023/08/14 04:47:13;;;;;;;6.40;4.60;;;;;;;15.08;100.00;98005.23;110549;1241;68391;-69
2023/08/14 04:49:44;;;;;;;5.50;4.20;;;;;;;15.38;100.00;98002.95;110197;1242;59712;-69
2023/08/14 04:52:14;;;;;;;4.60;3.70;;;;;;;15.73;100.00;98003.16;110169;1242;59694;-69
2023/08/14 04:54:45;;;;;;;4.30;3.90;;;;;;;16.10;100.00;98001.73;110118;1245;70642;-69
2023/08/14 04:57:15;;;;;;;4.70;4.00;;;;;;;16.47;100.00;98002.79;110292;1242;68408;-70
2023/08/14 04:59:45;;;;;;;5.60;5.00;;;;;;;16.81;100.00;98003.55;110275;1242;69250;-67
2023/08/14 05:02:15;;;;;;;5.90;5.10;;;;;;;17.10;100.00;98010.23;110425;1248;59743;-70
2023/08/14 05:04:48;;;;;;;6.70;5.60;;;;;;;17.38;100.00;98012.84;110416;1242;59673;-69
2023/08/14 05:07:18;;;;;;;6.20;5.60;;;;;;;17.65;100.00;98015.64;110210;1240;70415;-69
2023/08/14 05:09:50;;;;;;;7.00;6.10;;;;;;;17.94;100.00;98017.92;110148;1240;69240;-67
2023/08/14 05:12:20;;;;;;;5.80;5.10;;;;;;;18.11;99.17;98016.29;110295;1244;69393;-68
2023/08/14 05:14:52;;;;;;;5.10;4.60;;;;;;;18.25;98.22;98012.81;110225;1243;59718;-67
2023/08/14 05:17:23;;;;;;;5.90;5.30;;;;;;;18.56;95.59;98011.85;110260;1244;59638;-69
2023/08/14 05:19:52;;;;;;;6.80;6.10;;;;;;;18.74;94.76;98013.15;110239;1242;71972;-68
2023/08/14 05:22:22;;;;;;;7.80;5.40;;;;;;;18.95;96.62;98012.02;110167;1246;69271;-68
2023/08/14 05:24:51;;;;;;;6.90;5.40;;;;;;;19.09;95.78;98015.17;110273;1241;69931;-69
2023/08/14 05:27:21;;;;;;;5.40;4.30;;;;;;;19.41;93.19;98013.08;110313;1242;59694;-68
2023/08/14 05:29:50;;;;;;;;;;;;;;;19.80;87.77;98013.96;110279;1242;59700;-69
2023/08/14 05:32:20;;;;;;;4.30;3.80;;;;;;;20.22;88.79;98015.20;110468;1241;70668;-69
2023/08/14 05:34:49;;;;;;;5.20;4.20;;;;;;;20.58;82.21;98011.91;110343;1242;69893;-68
2023/08/14 05:37:19;;;;;;;6.10;4.90;;;;;;;20.68;80.48;98014.19;110375;1242;69267;-68
2023/08/14 05:39:49;;;;;;;6.50;5.00;;;;;;;20.70;80.04;98017.92;110403;1242;59708;-68
2023/08/14 05:42:19;;;;;;;5.70;5.10;;;;;;;20.61;79.30;98016.46;110411;1241;59729;-68
2023/08/14 05:44:48;;;;;;;6.40;5.00;;;;;;;20.85;79.10;98016.45;110440;1239;70726;-69
2023/08/14 05:47:17;;;;;;;5.40;4.90;;;;;;;21.14;79.24;98021.20;110489;1240;69864;-68
2023/08/14 05:49:47;;;;;;;6.50;4.50;;;;;;;21.25;78.40;98023.85;110323;1242;69897;-69
2023/08/14 05:52:17;;;;;;;6.60;4.40;;;;;;;21.45;76.95;98022.08;110281;1246;59743;-68
2023/08/14 05:54:47;;;;;;;;;;;;;;;21.43;76.67;98024.65;110362;1242;59678;-69
2023/08/14 05:57:16;;;;;;;5.90;5.40;;;;;;;21.58;75.73;98022.54;110484;1241;70939;-68
2023/08/14 05:59:46;;;;;;;5.10;4.60;;;;;;;21.84;76.26;98019.84;110314;1242;69818;-67
2023/08/14 06:02:15;;;;;;;8.00;5.50;;;;;;;22.10;74.64;98020.55;110253;1242;69319;-68
2023/08/14 06:04:45;;;;;;;6.80;4.80;;;;;;;22.40;75.76;98015.61;110232;1242;59728;-69
2023/08/14 06:07:14;;;;;;;;;;;;;;;22.71;74.44;98017.98;110367;1243;59698;-69
2023/08/14 06:09:43;;;;;;;6.10;5.10;;;;;;;22.77;71.64;98014.77;110370;1241;71959;-67
2023/08/14 06:12:13;;;;;;;6.30;4.70;;;;;;;22.78;70.49;98014.34;110429;1241;68118;-68
2023/08/14 06:14:42;;;;;;;5.50;4.70;;;;;;;23.06;69.46;98015.59;110498;1243;69356;-69
2023/08/14 06:17:13;;;;;;;4.80;4.10;;;;;;;23.49;70.89;98016.88;110368;1241;59746;-68
2023/08/14 06:19:42;;;;;;;6.50;5.40;;;;;;;23.72;66.64;98015.44;110441;1242;59681;-66
2023/08/14 06:22:12;;;;;;;7.10;6.30;;;;;;;24.11;67.02;98018.98;110469;1244;71833;-69
2023/08/14 06:24:41;;;;;;;5.70;5.00;;;;;;;24.39;64.91;98014.56;110367;1242;69849;-68
2023/08/14 06:27:10;;;;;;;6.60;5.70;;;;;;;24.47;64.70;98016.88;110398;1242;68516;-68
2023/08/14 06:29:39;;;;;;;7.70;5.70;;;;;;;24.59;63.35;98016.81;110411;1241;59653;-67
2023/08/14 06:32:09;;;;;;;5.80;5.20;;;;;;;24.46;62.76;98013.91;110526;1241;60107;-69
2023/08/14 06:34:38;;;;;;;6.60;4.70;;;;;;;24.31;63.08;98013.28;110435;1242;71418;-68
2023/08/14 06:37:08;;;;;;;5.70;5.00;;;;;;;24.46;62.42;98017.34;110505;1242;69220;-67
2023/08/14 06:39:37;;;;;;;;;;;;;;;24.78;62.53;98019.11;110402;1242;69221;-67
2023/08/14 06:42:06;;;;;;;5.20;4.60;;;;;;;24.91;62.37;98020.11;110352;1241;59702;-69
2023/08/14 06:44:37;;;;;;;5.50;4.40;;;;;;;25.12;61.46;98018.51;110296;1242;59688;-68
2023/08/14 06:47:06;;;;;;;4.60;4.20;;;;;;;25.37;61.24;98025.61;110405;1243;71353;-69
2023/08/14 06:49:35;;;;;;;5.30;4.30;;;;;;;25.32;59.54;98025.00;110377;1242;68722;-68
2023/08/14 06:52:05;;;;;;;5.50;4.40;;;;;;;25.20;59.14;98026.42;110468;1242;69132;-68
2023/08/14 06:54:34;;;;;;;5.30;4.50;;;;;;;25.34;60.63;98031.74;110419;1242;59744;-66
2023/08/14 06:57:04;;;;;;;4.70;4.30;;;;;;;25.68;58.32;98036.14;110356;1240;59759;-68
2023/08/14 06:59:33;;;;;;;4.30;3.90;;;;;;;25.93;57.80;98033.76;110412;1241;70836;-66
2023/08/14 07:02:02;;;;;;;;;;;;;;;26.31;57.80;98040.20;110238;1242;70186;-68
2023/08/14 07:15:48;;;;;;;4.60;4.10;;;;;;;26.90;54.69;98034.38;107292;1273;610038;-69
2023/08/14 07:18:19;;;;;;;4.80;4.00;;;;;;;26.62;55.32;98037.93;109148;1257;365234;-68
2023/08/14 07:20:49;;;;;;;4.80;4.20;;;;;;;26.70;55.08;98034.35;109234;1254;57651;-68
2023/08/14 07:23:20;;;;;;;4.80;3.70;;;;;;;26.79;54.57;98033.86;109297;1253;68043;-67
2023/08/14 07:25:49;;;;;;;4.80;4.40;;;;;;;27.14;54.00;98031.38;109294;1255;68082;-66
2023/08/14 07:28:19;;;;;;;4.80;4.30;;;;;;;27.28;53.22;98029.84;109233;1257;69862;-68
2023/08/14 07:30:48;;;;;;;4.60;4.20;;;;;;;27.42;52.97;98030.08;109285;1255;57651;-66
2023/08/14 07:33:17;;;;;;;4.40;3.90;;;;;;;27.06;52.56;98029.80;109188;1262;58051;-65
2023/08/14 07:35:46;;;;;;;;;;;;;;;27.56;52.89;98031.63;109212;1255;69572;-68
2023/08/14 07:38:15;;;;;;;;;;;;;;;27.92;50.90;98029.61;109212;1256;69858;-68
2023/08/14 07:40:44;;;;;;;4.40;3.70;;;;;;;27.93;50.92;98028.13;109253;1255;68894;-67
2023/08/14 07:43:13;;;;;;;;;;;;;;;27.92;50.76;98026.46;109256;1256;58115;-66
2023/08/14 07:45:43;;;;;;;4.20;3.80;;;;;;;28.13;49.87;98026.26;109172;1255;58104;-68
2023/08/14 07:48:12;;;;;;;4.90;3.80;;;;;;;28.67;48.82;98025.48;109225;1255;70349;-67
2023/08/14 07:50:42;;;;;;;5.20;4.20;;;;;;;28.55;48.81;98024.60;109210;1255;69056;-67
2023/08/14 07:53:11;;;;;;;5.10;4.20;;;;;;;28.19;48.91;98024.88;109149;1253;70247;-68
2023/08/14 07:55:41;;;;;;;4.70;4.20;;;;;;;28.76;49.01;98024.26;109220;1255;58058;-67
2023/08/14 07:58:11;;;;;;;4.80;4.20;;;;;;;29.31;48.06;98022.36;109231;1256;58085;-67
2023/08/14 08:00:40;;;;;;;4.30;3.60;;;;;;;29.56;46.67;98025.20;109223;1254;69785;-67
2023/08/14 08:03:09;;;;;;;4.30;3.80;;;;;;;29.87;47.11;98026.59;109257;1258;69251;-67
2023/08/14 08:05:39;;;;;;;4.50;3.40;;;;;;;30.01;45.34;98025.97;109196;1255;70120;-68
2023/08/14 08:08:10;;;;;;;4.80;4.40;;;;;;;29.74;45.99;98031.67;109251;1255;58092;-69
2023/08/14 08:10:39;;;;;;;4.00;3.40;;;;;;;29.90;45.41;98027.88;109229;1255;58135;-68
2023/08/14 08:13:09;;;;;;;4.50;3.90;;;;;;;28.98;46.05;98024.59;109257;1254;70335;-68
2023/08/14 08:15:38;;;;;;;5.50;4.10;;;;;;;29.41;45.96;98021.55;109160;1262;69809;-68
2023/08/14 08:18:07;;;;;;;4.00;3.50;;;;;;;29.88;46.00;98020.90;109179;1255;68379;-68
2023/08/14 08:20:36;;;;;;;4.30;3.40;;;;;;;30.57;46.43;98024.02;109168;1255;58164;-68
2023/08/14 08:23:05;;;;;;;4.40;3.50;;;;;;;30.81;43.45;98019.50;109158;1255;58067;-67
2023/08/14 08:25:35;;;;;;;5.00;3.70;;;;;;;30.91;42.41;98019.69;109215;1255;70366;-67
2023/08/14 08:28:05;;;;;;;4.10;3.10;;;;;;;30.48;42.85;98026.38;110133;1246;69796;-66
2023/08/14 08:30:33;;;;;;;5.70;3.30;;;;;;;30.87;42.71;98021.54;110073;1241;69879;-67
2023/08/14 08:33:03;;;;;;;3.60;2.90;;;;;;;31.27;42.10;98021.56;110119;1244;58151;-67
2023/08/14 08:35:34;;;;;;;4.20;3.00;;;;;;;31.08;39.98;98020.72;110072;1245;58078;-67
2023/08/14 08:38:03;;;;;;;4.20;3.20;;;;;;;31.12;39.45;98020.34;110071;1246;70385;-67
2023/08/14 08:40:33;;;;;;;3.60;3.20;;;;;;;31.00;39.64;98025.25;110134;1246;68485;-67
2023/08/14 08:43:03;;;;;;;3.90;3.00;;;;;;;30.87;39.30;98020.21;110136;1245;69757;-67
2023/08/14 08:45:34;;;;;;;4.40;3.40;;;;;;;30.88;39.56;98016.92;110109;1241;58072;-67
2023/08/14 08:48:06;;;;;;;3.30;2.90;;;;;;;31.38;39.33;98012.56;110085;1246;58141;-67
2023/08/14 08:50:36;;;;;;;4.70;3.10;;;;;;;31.96;39.17;98016.02;110109;1244;70124;-67
2023/08/14 08:53:06;;;;;;;4.10;3.30;;;;;;;32.16;37.33;98014.53;110138;1244;69919;-65
2023/08/14 08:55:36;;;;;;;3.50;3.00;;;;;;;32.55;37.38;98016.29;110122;1243;69887;-68
2023/08/14 08:58:06;;;;;;;3.00;2.30;;;;;;;33.28;37.70;98012.58;110122;1241;58147;-68
2023/08/14 09:00:35;;;;;;;3.90;2.70;;;;;;;33.26;36.32;98010.98;110180;1245;58130;-64
2023/08/14 09:03:04;;;;;;;4.20;3.30;;;;;;;33.81;36.29;98011.67;110147;1241;70362;-67
2023/08/14 09:05:35;;;;;;;4.00;3.10;;;;;;;33.89;35.08;98012.35;110111;1246;69665;-67
2023/08/14 09:08:04;;;;;;;4.30;3.20;;;;;;;33.74;34.22;98007.61;110105;1242;69864;-68
2023/08/14 09:10:34;;;;;;;3.40;2.90;;;;;;;33.84;34.22;98003.54;110136;1245;58088;-66
2023/08/14 09:13:03;;;;;;;3.10;2.60;;;;;;;33.78;33.91;98006.59;110074;1245;58094;-68
2023/08/14 09:15:44;;;;;;;2.80;2.50;;;;;;;34.10;34.95;98006.94;110092;1245;69876;-67
2023/08/14 09:18:15;;;;;;;2.50;2.10;;;;;;;33.85;33.38;98004.12;110158;1245;70035;-67
2023/08/14 09:20:45;;;;;;;4.00;2.90;;;;;;;33.75;33.58;98005.17;110057;1245;69768;-66
2023/08/14 09:23:15;;;;;;;2.90;2.60;;;;;;;34.10;33.95;98002.10;110119;1245;58072;-67
2023/08/14 09:25:46;;;;;;;3.10;2.80;;;;;;;34.39;33.38;98005.42;110107;1245;58091;-68
2023/08/14 09:28:17;;;;;;;3.20;2.60;;;;;;;34.74;32.66;97999.54;110088;1241;70660;-68
2023/08/14 09:30:47;;;;;;;3.60;2.80;;;;;;;34.99;31.89;97996.90;110134;1245;69353;-67
2023/08/14 09:33:16;;;;;;;3.10;2.80;;;;;;;34.40;32.32;97991.59;110086;1245;69833;-67
2023/08/14 09:35:53;;;;;;;3.10;2.50;;;;;;;34.63;32.61;97990.50;110079;1244;58198;-67
2023/08/14 09:38:22;;;;;;;2.70;2.30;;;;;;;34.96;32.77;97985.85;110131;1241;58093;-67
2023/08/14 09:41:01;;;;;;;3.30;2.70;;;;;;;35.12;31.88;97983.81;110081;1244;68852;-67
2023/08/14 09:43:32;;;;;;;3.30;2.40;;;;;;;34.57;31.12;97987.14;110171;1241;69581;-67
2023/08/14 09:46:03;;;;;;;3.60;3.10;;;;;;;34.27;31.79;97983.80;110083;1241;69231;-68
2023/08/14 09:48:42;;;;;;;4.70;3.20;;;;;;;34.46;31.89;97981.74;110093;1241;58126;-68
2023/08/14 09:51:15;;;;;;;3.80;2.70;;;;;;;33.79;32.35;97976.60;110144;1241;58099;-67
2023/08/14 09:53:57;;;;;;;3.90;3.00;;;;;;;33.91;32.58;97974.42;110093;1245;70317;-68
2023/08/14 09:56:26;;;;;;;2.60;2.40;;;;;;;34.04;31.75;97973.59;110094;1243;69861;-67
2023/08/14 09:58:55;;;;;;;2.60;2.10;;;;;;;34.40;32.04;97970.91;110098;1245;69174;-66
2023/08/14 10:01:25;;;;;;;3.80;2.70;;;;;;;35.26;31.55;97963.63;110068;1245;58508;-68
2023/08/14 10:03:56;;;;;;;3.10;2.70;;;;;;;35.68;30.74;97961.80;110087;1244;58524;-68
2023/08/14 10:06:26;;;;;;;4.70;2.50;;;;;;;36.07;30.06;97958.55;110105;1244;69803;-67
2023/08/14 10:08:57;;;;;;;3.30;2.60;;;;;;;36.28;29.34;97953.07;110108;1245;69184;-66
2023/08/14 10:11:33;;;;;;;2.80;2.30;;;;;;;36.42;29.38;97951.14;110119;1242;69256;-67
2023/08/14 10:14:06;;;;;;;2.90;2.60;;;;;;;36.62;29.18;97949.00;110108;1245;58099;-67
2023/08/14 10:16:40;;;;;;;3.20;2.50;;;;;;;36.31;29.77;97951.11;110125;1241;58131;-66
2023/08/14 10:19:13;;;;;;;3.50;3.00;;;;;;;36.51;29.25;97947.75;110115;1244;69876;-67
2023/08/14 10:21:44;;;;;;;3.20;2.90;;;;;;;36.93;28.98;97943.89;110097;1241;69723;-67
2023/08/14 10:24:15;;;;;;;3.00;2.40;;;;;;;37.08;28.00;97945.34;110107;1244;69539;-66
2023/08/14 10:26:45;;;;;;;2.50;2.20;;;;;;;36.81;27.74;97942.91;110069;1241;58517;-67
2023/08/14 10:29:15;;;;;;;3.00;2.70;;;;;;;36.19;28.56;97940.86;110125;1241;58121;-66
2023/08/14 10:31:46;;;;;;;3.20;2.60;;;;;;;36.23;28.82;97941.00;110101;1241;70345;-68
2023/08/14 10:34:16;;;;;;;2.80;2.40;;;;;;;36.72;28.23;97937.10;110101;1245;69695;-67
2023/08/14 10:36:50;;;;;;;2.80;2.40;;;;;;;36.92;28.16;97940.02;110097;1246;69288;-67
2023/08/14 10:39:33;;;;;;;2.60;2.00;;;;;;;37.18;27.78;97936.74;110142;1241;58075;-66
2023/08/14 10:42:06;;;;;;;2.80;2.30;;;;;;;37.36;26.90;97933.45;110120;1241;58087;-66
2023/08/14 10:44:35;;;;;;;2.90;2.10;;;;;;;36.83;28.60;97929.41;110037;1241;70348;-68
2023/08/14 10:47:06;;;;;;;3.80;2.60;;;;;;;37.09;29.44;97927.30;110145;1241;69219;-67
2023/08/14 10:49:45;;;;;;;2.40;1.90;;;;;;;37.27;29.05;97925.53;110203;1241;69702;-68
2023/08/14 10:52:19;;;;;;;3.40;2.80;;;;;;;37.48;28.69;97925.45;110177;1244;58048;-67
2023/08/14 10:54:52;;;;;;;3.60;2.80;;;;;;;37.50;28.43;97924.19;110187;1244;58121;-67
2023/08/14 10:57:28;;;;;;;3.90;2.70;;;;;;;37.52;28.19;97923.36;110137;1244;69749;-66
2023/08/14 10:59:58;;;;;;;2.60;2.40;;;;;;;37.38;26.68;97923.61;110127;1241;69431;-66
2023/08/14 11:02:29;;;;;;;3.70;2.70;;;;;;;37.28;26.91;97923.79;110126;1244;69089;-67
2023/08/14 11:05:13;;;;;;;3.20;2.70;;;;;;;37.31;27.32;97918.39;110150;1246;58121;-67
2023/08/14 11:07:56;;;;;;;3.20;2.90;;;;;;;37.62;27.31;97916.59;110122;1244;58068;-67
2023/08/14 11:10:26;;;;;;;3.10;2.80;;;;;;;36.62;27.71;97913.15;110141;1244;69805;-66
2023/08/14 11:12:57;;;;;;;3.20;2.50;;;;;;;36.61;28.34;97904.34;110096;1241;69604;-67
2023/08/14 11:15:26;;;;;;;3.70;3.00;;;;;;;37.70;27.36;97903.41;110114;1245;69337;-66
2023/08/14 11:17:58;;;;;;;3.30;2.40;;;;;;;37.06;26.62;97899.20;110143;1244;58071;-66
2023/08/14 11:20:32;;;;;;;2.40;2.10;;;;;;;37.24;27.46;97895.38;110096;1244;58118;-67
2023/08/14 11:23:01;;;;;;;4.30;2.80;;;;;;;36.68;27.17;97891.17;110107;1241;69607;-67
2023/08/14 11:25:30;;;;;;;4.00;3.30;;;;;;;37.20;27.56;97890.09;110137;1246;69604;-68
2023/08/14 11:28:00;;;;;;;3.20;2.80;;;;;;;37.44;27.14;97894.48;110095;1245;69726;-68
2023/08/14 11:30:36;;;;;;;3.20;2.60;;;;;;;37.09;26.65;97888.20;110076;1245;58885;-67
2023/08/14 11:33:05;;;;;;;3.00;2.70;;;;;;;36.66;26.90;97889.27;110102;1241;58940;-67
2023/08/14 11:35:34;;;;;;;2.90;2.60;;;;;;;37.14;27.03;97884.91;110147;1241;71523;-67
2023/08/14 11:38:03;;;;;;;3.00;2.30;;;;;;;37.16;26.83;97884.64;110117;1241;69259;-67
2023/08/14 11:40:40;;;;;;;2.50;2.20;;;;;;;37.15;26.13;97879.61;110119;1245;68501;-67
2023/08/14 11:43:10;;;;;;;3.40;2.60;;;;;;;36.95;26.45;97877.23;110093;1245;58960;-67
2023/08/14 11:45:41;;;;;;;2.70;2.40;;;;;;;37.12;26.66;97873.80;110150;1244;58909;-67
2023/08/14 11:48:10;;;;;;;2.80;2.50;;;;;;;37.19;26.67;97875.11;110155;1244;71157;-67
2023/08/14 11:50:45;;;;;;;4.20;2.70;;;;;;;36.51;26.43;97870.20;110142;1241;69106;-66
2023/08/14 11:53:15;;;;;;;2.50;2.30;;;;;;;35.82;27.33;97868.77;110112;1244;69313;-67
2023/08/14 11:55:44;;;;;;;2.80;2.30;;;;;;;36.61;28.61;97865.95;110131;1244;59395;-67